createdAt,value
2019-03-05T00:01:25.393Z,94.30
2019-03-05T00:03:53.130Z,94.40
2019-03-05T00:06:20.857Z,94.40
2019-03-05T00:08:48.585Z,94.50
2019-03-05T00:11:16.296Z,94.50
2019-03-05T00:13:44.041Z,94.50
2019-03-05T00:16:11.765Z,94.60
2019-03-05T00:18:39.502Z,94.60
2019-03-05T00:21:07.222Z,94.80
2019-03-05T00:23:48.778Z,94.80
2019-03-05T00:26:17.849Z,94.90
2019-03-05T00:29:30.297Z,95.00
2019-03-05T00:31:58.377Z,95.20
2019-03-05T00:34:54.516Z,95.30
2019-03-05T00:37:40.754Z,95.40
2019-03-05T00:40:32.173Z,95.50
2019-03-05T00:43:34.266Z,95.50
2019-03-05T00:46:38.937Z,95.70
2019-03-05T00:49:28.529Z,95.70
2019-03-05T00:52:37.171Z,95.70
2019-03-05T00:55:24.414Z,95.70
2019-03-05T00:58:06.806Z,95.80
2019-03-05T01:01:31.317Z,95.80
2019-03-05T01:04:21.510Z,95.80
2019-03-05T01:06:49.238Z,95.80
2019-03-05T01:09:21.069Z,95.80
2019-03-05T01:11:48.805Z,95.70
2019-03-05T01:14:16.823Z,95.70
2019-03-05T01:16:45.601Z,95.80
2019-03-05T01:19:13.350Z,95.80
2019-03-05T01:21:41.090Z,95.80
2019-03-05T01:24:08.793Z,95.90
2019-03-05T01:26:36.782Z,96.00
2019-03-05T01:29:04.509Z,96.10
2019-03-05T01:31:51.695Z,96.20
2019-03-05T01:34:33.413Z,96.30
2019-03-05T01:37:01.888Z,96.40
2019-03-05T01:39:49.026Z,96.40
2019-03-05T01:42:16.844Z,96.50
2019-03-05T01:44:44.549Z,96.60
2019-03-05T01:47:12.289Z,96.60
2019-03-05T01:49:40.001Z,96.70
2019-03-05T01:52:07.750Z,96.80
2019-03-05T01:54:35.461Z,96.80
2019-03-05T01:57:03.201Z,97.00
2019-03-05T01:59:30.905Z,97.00
2019-03-05T02:01:58.624Z,97.00
2019-03-05T02:04:26.329Z,96.90
2019-03-05T02:06:54.072Z,96.90
2019-03-05T02:09:21.785Z,97.00
2019-03-05T02:11:49.543Z,97.00
2019-03-05T02:14:17.246Z,97.10
2019-03-05T02:16:44.943Z,97.10
2019-03-05T02:19:44.019Z,97.30
2019-03-05T02:22:32.945Z,97.50
2019-03-05T02:25:25.154Z,97.80
2019-03-05T02:28:35.977Z,97.90
2019-03-05T02:31:38.145Z,97.80
2019-03-05T02:34:12.402Z,97.50
2019-03-05T02:37:20.422Z,97.50
2019-03-05T02:40:03.111Z,97.40
2019-03-05T02:43:12.242Z,97.60
2019-03-05T02:45:58.506Z,97.30
2019-03-05T02:48:53.515Z,97.50
2019-03-05T02:52:01.219Z,97.70
2019-03-05T02:54:42.228Z,97.90
2019-03-05T02:57:09.910Z,97.80
2019-03-05T02:59:37.714Z,97.80
2019-03-05T03:02:24.894Z,97.70
2019-03-05T03:04:57.691Z,97.60
2019-03-05T03:07:25.448Z,97.60
2019-03-05T03:10:17.033Z,97.60
2019-03-05T03:12:44.934Z,97.60
2019-03-05T03:15:14.125Z,97.60
2019-03-05T03:17:41.847Z,97.60
2019-03-05T03:20:10.982Z,97.70
2019-03-05T03:22:38.718Z,98.10
2019-03-05T03:25:07.370Z,98.60
2019-03-05T03:27:35.130Z,98.80
2019-03-05T03:30:04.644Z,99.10
2019-03-05T03:32:32.461Z,99.30
2019-03-05T03:35:00.469Z,99.20
2019-03-05T03:37:28.480Z,99.20
2019-03-05T03:39:56.198Z,99.20
2019-03-05T03:42:23.934Z,99.30
2019-03-05T03:44:51.657Z,99.40
2019-03-05T03:47:19.377Z,99.40
2019-03-05T03:49:47.074Z,99.30
2019-03-05T03:52:14.770Z,99.30
2019-03-05T03:54:42.507Z,99.30
2019-03-05T03:57:10.229Z,99.60
2019-03-05T03:59:37.937Z,99.30
2019-03-05T04:02:05.674Z,99.20
2019-03-05T04:04:33.498Z,99.10
2019-03-05T04:07:01.198Z,99.10
2019-03-05T04:09:28.907Z,99.20
2019-03-05T04:11:56.629Z,99.30
2019-03-05T04:14:24.355Z,99.40
2019-03-05T04:16:52.081Z,99.30
2019-03-05T04:19:24.618Z,99.40
2019-03-05T04:21:52.353Z,99.40
2019-03-05T04:24:20.082Z,99.60
2019-03-05T04:26:47.851Z,99.70
2019-03-05T04:29:15.566Z,99.70
2019-03-05T04:31:43.294Z,99.70
2019-03-05T04:34:11.026Z,99.80
2019-03-05T04:36:38.741Z,99.80
2019-03-05T04:39:10.389Z,99.70
2019-03-05T04:41:38.169Z,99.80
2019-03-05T04:44:05.949Z,99.90
2019-03-05T04:46:38.162Z,99.90
2019-03-05T04:49:37.246Z,99.90
2019-03-05T04:52:09.607Z,99.90
2019-03-05T04:54:37.347Z,99.80
2019-03-05T04:57:05.070Z,99.60
2019-03-05T04:59:32.820Z,99.50
2019-03-05T05:02:00.563Z,99.50
2019-03-05T05:04:28.285Z,99.50
2019-03-05T05:06:55.992Z,99.50
2019-03-05T05:09:23.713Z,99.40
2019-03-05T05:11:51.417Z,99.40
2019-03-05T05:14:19.132Z,99.20
2019-03-05T05:16:46.834Z,99.10
2019-03-05T05:19:14.554Z,99.10
2019-03-05T05:21:42.254Z,99.30
2019-03-05T05:24:10.015Z,99.80
2019-03-05T05:26:37.794Z,99.90
2019-03-05T05:29:05.573Z,99.90
2019-03-05T05:31:33.335Z,99.90
2019-03-05T05:34:01.042Z,99.90
2019-03-05T05:36:28.765Z,99.90
2019-03-05T05:38:56.473Z,99.90
2019-03-05T05:41:24.206Z,99.90
2019-03-05T05:43:51.912Z,99.90
2019-03-05T05:46:19.655Z,99.90
2019-03-05T05:48:47.433Z,99.90
2019-03-05T05:51:15.165Z,99.90
2019-03-05T05:53:42.874Z,99.90
2019-03-05T05:56:10.597Z,99.90
2019-03-05T05:58:38.313Z,99.90
2019-03-05T06:01:09.236Z,99.90
2019-03-05T06:03:37.881Z,99.90
2019-03-05T06:06:05.874Z,99.90
2019-03-05T06:08:33.602Z,99.90
2019-03-05T06:11:01.341Z,99.90
2019-03-05T06:13:29.109Z,99.90
2019-03-05T06:15:56.825Z,99.90
2019-03-05T06:18:24.561Z,99.90
2019-03-05T06:20:52.280Z,99.90
2019-03-05T06:23:20.025Z,99.90
2019-03-05T06:25:47.726Z,99.90
2019-03-05T06:28:15.505Z,99.90
2019-03-05T06:30:43.251Z,99.90
2019-03-05T06:33:10.973Z,99.90
2019-03-05T06:35:38.684Z,99.90
2019-03-05T06:38:06.441Z,99.90
2019-03-05T06:40:34.149Z,99.90
2019-03-05T06:43:01.884Z,99.90
2019-03-05T06:45:29.596Z,99.90
2019-03-05T06:47:57.334Z,99.90
2019-03-05T06:50:25.120Z,99.90
2019-03-05T06:52:52.801Z,99.90
2019-03-05T06:55:20.563Z,99.90
2019-03-05T06:57:48.357Z,99.90
2019-03-05T07:00:22.741Z,99.90
2019-03-05T07:02:50.472Z,99.90
2019-03-05T07:05:54.808Z,99.90
2019-03-05T07:08:22.525Z,99.70
2019-03-05T07:11:07.938Z,99.50
2019-03-05T07:13:35.660Z,99.40
2019-03-05T07:16:19.604Z,99.40
2019-03-05T07:19:31.924Z,99.40
2019-03-05T07:22:28.429Z,99.20
2019-03-05T07:24:56.169Z,99.10
2019-03-05T07:27:45.614Z,99.30
2019-03-05T07:30:20.622Z,99.40
2019-03-05T07:32:48.457Z,99.30
2019-03-05T07:35:19.316Z,99.20
2019-03-05T07:37:47.023Z,99.20
2019-03-05T07:40:14.754Z,99.20
2019-03-05T07:42:42.486Z,99.00
2019-03-05T07:45:10.583Z,98.70
2019-03-05T07:47:38.302Z,98.60
2019-03-05T07:50:06.457Z,98.70
2019-03-05T07:55:13.003Z,98.20
2019-03-05T07:57:31.241Z,98.00
2019-03-05T07:59:59.013Z,98.20
2019-03-05T08:02:26.725Z,97.60
2019-03-05T08:04:54.433Z,97.40
2019-03-05T08:07:22.077Z,96.90
2019-03-05T08:09:49.802Z,96.60
2019-03-05T08:12:52.808Z,96.50
2019-03-05T08:15:45.565Z,96.40
2019-03-05T08:18:13.262Z,96.20
2019-03-05T08:20:40.980Z,95.90
2019-03-05T08:23:08.701Z,95.90
2019-03-05T08:25:36.405Z,95.70
2019-03-05T08:28:04.145Z,95.80
2019-03-05T08:30:32.513Z,95.70
2019-03-05T08:33:00.204Z,95.60
2019-03-05T08:35:27.928Z,95.60
2019-03-05T08:37:55.668Z,95.60
2019-03-05T08:40:23.378Z,95.70
2019-03-05T08:42:51.095Z,95.60
2019-03-05T08:45:28.987Z,95.80
2019-03-05T08:47:48.598Z,95.40
2019-03-05T08:50:16.323Z,95.20
2019-03-05T08:52:44.096Z,94.80
2019-03-05T08:55:11.818Z,94.70
2019-03-05T08:57:39.575Z,94.60
2019-03-05T09:00:09.861Z,94.60
2019-03-05T09:02:47.971Z,94.30
2019-03-05T09:05:08.161Z,94.00
2019-03-05T09:07:35.872Z,93.60
2019-03-05T09:10:05.497Z,93.20
2019-03-05T09:12:33.213Z,93.10
2019-03-05T09:15:00.957Z,93.10
2019-03-05T09:17:28.678Z,93.00
2019-03-05T09:19:56.422Z,92.60
2019-03-05T09:22:24.149Z,92.50
2019-03-05T09:24:51.885Z,92.30
2019-03-05T09:27:19.502Z,92.50
2019-03-05T09:29:47.261Z,92.90
2019-03-05T09:32:15.144Z,92.30
2019-03-05T09:34:42.869Z,91.70
2019-03-05T09:37:10.570Z,91.50
2019-03-05T09:39:38.430Z,91.40
2019-03-05T09:42:06.134Z,91.00
2019-03-05T09:44:33.872Z,90.80
2019-03-05T09:47:01.630Z,90.60
2019-03-05T09:49:29.354Z,90.20
2019-03-05T09:51:57.069Z,90.10
2019-03-05T09:54:24.814Z,90.00
2019-03-05T09:56:52.525Z,90.20
2019-03-05T09:59:20.259Z,89.90
2019-03-05T10:01:51.213Z,88.90
2019-03-05T10:04:18.953Z,87.60
2019-03-05T10:06:46.689Z,87.30
2019-03-05T10:09:14.405Z,86.90
2019-03-05T10:11:42.130Z,87.30
2019-03-05T10:14:09.873Z,87.40
2019-03-05T10:16:37.590Z,86.50
2019-03-05T10:19:05.347Z,86.70
2019-03-05T10:21:33.074Z,86.80
2019-03-05T10:24:10.093Z,86.00
2019-03-05T10:26:30.330Z,84.90
2019-03-05T10:28:58.057Z,84.30
2019-03-05T10:31:25.921Z,84.20
2019-03-05T10:33:53.733Z,83.80
2019-03-05T10:36:21.557Z,83.40
2019-03-05T10:38:56.925Z,82.80
2019-03-05T10:41:18.813Z,82.60
2019-03-05T10:43:46.519Z,80.10
2019-03-05T10:46:14.246Z,79.20
2019-03-05T10:48:41.994Z,80.60
2019-03-05T10:51:09.728Z,82.30
2019-03-05T10:53:37.441Z,82.90
2019-03-05T10:56:05.163Z,81.80
2019-03-05T10:58:34.391Z,81.90
2019-03-05T11:01:02.785Z,81.80
2019-03-05T11:03:30.511Z,80.60
2019-03-05T11:05:58.260Z,80.50
2019-03-05T11:08:26.979Z,80.20
2019-03-05T11:10:55.082Z,79.60
2019-03-05T11:13:22.780Z,79.30
2019-03-05T11:15:53.139Z,77.30
2019-03-05T11:18:28.964Z,76.60
2019-03-05T11:20:50.444Z,75.60
2019-03-05T11:23:18.153Z,75.40
2019-03-05T11:25:45.889Z,75.00
2019-03-05T11:28:13.607Z,74.70
2019-03-05T11:30:44.434Z,73.20
2019-03-05T11:33:12.239Z,72.50
2019-03-05T11:35:40.073Z,71.60
2019-03-05T11:38:08.142Z,71.80
2019-03-05T11:40:36.522Z,70.50
2019-03-05T11:43:07.026Z,70.70
2019-03-05T11:45:34.724Z,68.20
2019-03-05T11:48:02.385Z,69.40
2019-03-05T11:50:30.310Z,69.40
2019-03-05T11:52:58.037Z,71.40
2019-03-05T11:55:25.767Z,71.00
2019-03-05T11:57:53.525Z,70.30
2019-03-05T12:00:39.130Z,70.30
2019-03-05T12:03:06.835Z,68.10
2019-03-05T12:05:34.565Z,69.00
2019-03-05T12:08:02.295Z,70.00
2019-03-05T12:10:30.007Z,69.00
2019-03-05T12:12:57.813Z,67.50
2019-03-05T12:15:25.565Z,65.90
2019-03-05T12:17:53.351Z,66.00
2019-03-05T12:20:21.050Z,64.40
2019-03-05T12:22:48.805Z,64.30
2019-03-05T12:25:16.601Z,65.80
2019-03-05T12:27:44.309Z,64.40
2019-03-05T12:30:15.165Z,61.90
2019-03-05T12:32:42.937Z,60.60
2019-03-05T12:35:12.319Z,61.40
2019-03-05T12:37:40.085Z,62.40
2019-03-05T12:40:08.928Z,61.40
2019-03-05T12:42:36.653Z,60.70
2019-03-05T12:45:04.822Z,60.00
2019-03-05T12:47:32.558Z,58.80
2019-03-05T12:50:00.337Z,59.00
2019-03-05T12:52:28.037Z,59.20
2019-03-05T12:54:56.366Z,59.20
2019-03-05T12:57:24.138Z,58.50
2019-03-05T12:59:51.869Z,58.90
2019-03-05T13:02:19.582Z,58.80
2019-03-05T13:04:47.320Z,56.80
2019-03-05T13:07:17.786Z,58.20
2019-03-05T13:09:45.457Z,59.10
2019-03-05T13:12:13.265Z,59.40
2019-03-05T13:14:42.716Z,58.80
2019-03-05T13:17:10.501Z,58.80
2019-03-05T13:19:38.875Z,58.90
2019-03-05T13:22:06.670Z,59.50
2019-03-05T13:24:34.413Z,59.10
2019-03-05T13:27:02.369Z,58.00
2019-03-05T13:29:30.172Z,57.50
2019-03-05T13:31:57.879Z,57.20
2019-03-05T13:34:25.707Z,58.30
2019-03-05T13:36:53.445Z,57.20
2019-03-05T13:39:22.211Z,56.50
2019-03-05T13:41:53.932Z,56.60
2019-03-05T13:44:32.058Z,57.20
2019-03-05T13:47:01.010Z,56.20
2019-03-05T13:50:09.357Z,56.70
2019-03-05T13:53:14.517Z,57.20
2019-03-05T13:56:12.026Z,57.10
2019-03-05T13:59:30.589Z,57.00
2019-03-05T14:01:58.341Z,57.90
2019-03-05T14:04:33.194Z,57.50
2019-03-05T14:07:58.231Z,57.90
2019-03-05T14:10:26.323Z,58.00
2019-03-05T14:12:54.187Z,57.70
2019-03-05T14:15:21.923Z,56.90
2019-03-05T14:17:49.706Z,56.60
2019-03-05T14:20:17.420Z,55.30
2019-03-05T14:22:45.174Z,55.90
2019-03-05T14:25:13.309Z,56.40
2019-03-05T14:27:41.310Z,55.90
2019-03-05T14:30:15.001Z,55.70
2019-03-05T14:32:42.724Z,56.80
2019-03-05T14:35:13.215Z,57.20
2019-03-05T14:37:40.942Z,56.80
2019-03-05T14:40:23.508Z,57.10
2019-03-05T14:42:41.302Z,56.60
2019-03-05T14:45:11.790Z,56.40
2019-03-05T14:47:39.536Z,55.70
2019-03-05T14:50:07.395Z,54.90
2019-03-05T14:52:35.173Z,55.20
2019-03-05T14:55:02.914Z,55.00
2019-03-05T14:57:30.668Z,55.30
2019-03-05T14:59:58.419Z,54.20
2019-03-05T15:02:26.167Z,54.20
2019-03-05T15:04:53.901Z,54.50
2019-03-05T15:07:21.628Z,54.50
2019-03-05T15:09:49.302Z,54.60
2019-03-05T15:12:17.076Z,55.30
2019-03-05T15:14:44.826Z,55.60
2019-03-05T15:17:12.594Z,55.50
2019-03-05T15:19:40.285Z,54.60
2019-03-05T15:22:08.059Z,55.20
2019-03-05T15:24:35.785Z,55.10
2019-03-05T15:27:03.645Z,55.40
2019-03-05T15:29:31.391Z,55.10
2019-03-05T15:31:59.115Z,55.30
2019-03-05T15:34:27.066Z,55.00
2019-03-05T15:36:54.753Z,54.90
2019-03-05T15:39:22.530Z,54.80
2019-03-05T15:41:50.235Z,54.90
2019-03-05T15:44:17.976Z,55.50
2019-03-05T15:46:45.731Z,55.80
2019-03-05T15:49:13.431Z,56.00
2019-03-05T15:51:41.195Z,56.10
2019-03-05T15:54:08.916Z,55.60
2019-03-05T15:56:36.629Z,55.50
2019-03-05T15:59:04.400Z,55.50
2019-03-05T16:01:32.125Z,55.60
2019-03-05T16:03:59.857Z,55.20
2019-03-05T16:06:30.103Z,54.90
2019-03-05T16:08:57.880Z,55.20
2019-03-05T16:11:30.248Z,56.00
2019-03-05T16:13:56.931Z,56.30
2019-03-05T16:16:25.721Z,56.60
2019-03-05T16:18:53.466Z,55.20
2019-03-05T16:21:21.190Z,55.30
2019-03-05T16:23:48.925Z,55.80
2019-03-05T16:26:16.653Z,56.20
2019-03-05T16:28:45.074Z,56.50
2019-03-05T16:31:35.313Z,56.50
2019-03-05T16:34:09.401Z,56.90
2019-03-05T16:36:52.002Z,58.30
2019-03-05T16:39:42.318Z,58.00
2019-03-05T16:42:25.192Z,58.20
2019-03-05T16:45:21.449Z,58.50
2019-03-05T16:48:14.271Z,59.00
2019-03-05T16:51:16.350Z,58.60
2019-03-05T16:54:02.229Z,58.30
2019-03-05T16:56:52.000Z,58.30
2019-03-05T16:59:37.990Z,58.50
2019-03-05T17:02:27.952Z,58.70
2019-03-05T17:05:17.652Z,59.30
2019-03-05T17:08:07.436Z,59.60
2019-03-05T17:10:53.449Z,60.20
2019-03-05T17:13:21.181Z,60.10
2019-03-05T17:15:48.885Z,60.20
2019-03-05T17:18:16.601Z,61.60
2019-03-05T17:20:44.328Z,62.20
2019-03-05T17:23:12.365Z,63.20
2019-03-05T17:25:41.521Z,64.10
2019-03-05T17:28:09.241Z,64.90
2019-03-05T17:30:36.957Z,65.30
2019-03-05T17:33:04.687Z,65.20
2019-03-05T17:35:32.803Z,66.00
2019-03-05T17:38:00.466Z,66.40
2019-03-05T17:40:28.186Z,66.90
2019-03-05T17:42:55.966Z,67.60
2019-03-05T17:45:23.713Z,68.30
2019-03-05T17:47:51.676Z,68.70
2019-03-05T17:50:19.362Z,69.30
2019-03-05T17:52:47.084Z,69.80
2019-03-05T17:55:23.896Z,70.50
2019-03-05T17:57:46.569Z,70.80
2019-03-05T18:00:20.814Z,71.40
2019-03-05T18:02:48.536Z,72.30
2019-03-05T18:05:16.280Z,72.30
2019-03-05T18:07:43.991Z,72.60
2019-03-05T18:10:11.748Z,73.20
2019-03-05T18:12:39.758Z,73.70
2019-03-05T18:15:08.405Z,74.10
2019-03-05T18:17:36.109Z,74.70
2019-03-05T18:20:04.138Z,75.30
2019-03-05T18:22:31.839Z,75.80
2019-03-05T18:25:00.240Z,76.40
2019-03-05T18:27:28.172Z,77.00
2019-03-05T18:29:55.916Z,77.50
2019-03-05T18:32:23.643Z,78.10
2019-03-05T18:34:51.376Z,78.40
2019-03-05T18:37:19.192Z,79.00
2019-03-05T18:39:46.932Z,79.70
2019-03-05T18:42:14.662Z,80.20
2019-03-05T18:44:43.864Z,80.50
2019-03-05T18:47:11.613Z,81.20
2019-03-05T18:49:39.319Z,82.30
2019-03-05T18:52:07.561Z,83.60
2019-03-05T18:54:35.285Z,83.60
2019-03-05T18:57:03.006Z,83.70
2019-03-05T18:59:30.769Z,83.80
2019-03-05T19:01:58.511Z,83.80
2019-03-05T19:04:26.282Z,84.20
2019-03-05T19:06:54.006Z,84.30
2019-03-05T19:09:21.737Z,84.30
2019-03-05T19:11:49.489Z,84.30
2019-03-05T19:14:17.219Z,84.50
2019-03-05T19:16:45.057Z,84.70
2019-03-05T19:19:12.805Z,85.00
2019-03-05T19:21:40.566Z,85.20
2019-03-05T19:24:08.267Z,85.50
2019-03-05T19:26:35.990Z,85.50
2019-03-05T19:29:03.968Z,86.00
2019-03-05T19:31:31.990Z,86.80
2019-03-05T19:33:59.729Z,87.60
2019-03-05T19:36:27.633Z,88.30
2019-03-05T19:38:55.432Z,88.60
2019-03-05T19:41:23.137Z,88.90
2019-03-05T19:43:50.869Z,89.10
2019-03-05T19:46:18.589Z,89.10
2019-03-05T19:48:46.389Z,89.20
2019-03-05T19:51:14.089Z,89.20
2019-03-05T19:53:41.797Z,89.40
2019-03-05T19:56:09.525Z,89.60
2019-03-05T19:58:37.440Z,89.90
2019-03-05T20:01:23.244Z,89.90
2019-03-05T20:03:51.159Z,89.80
2019-03-05T20:06:18.882Z,89.80
2019-03-05T20:08:46.585Z,89.60
2019-03-05T20:11:14.511Z,89.70
2019-03-05T20:13:42.213Z,90.00
2019-03-05T20:16:11.889Z,90.10
2019-03-05T20:18:39.650Z,90.00
2019-03-05T20:21:07.615Z,89.40
2019-03-05T20:23:35.377Z,89.50
2019-03-05T20:26:03.093Z,89.90
2019-03-05T20:28:30.794Z,89.40
2019-03-05T20:30:58.531Z,88.60
2019-03-05T20:33:26.265Z,88.60
2019-03-05T20:35:53.997Z,88.60
2019-03-05T20:38:21.743Z,88.60
2019-03-05T20:40:49.445Z,88.40
2019-03-05T20:43:17.285Z,88.50
2019-03-05T20:45:45.196Z,88.50
2019-03-05T20:48:13.229Z,88.60
2019-03-05T20:50:40.941Z,88.10
2019-03-05T20:53:08.665Z,87.60
2019-03-05T20:55:36.389Z,87.50
2019-03-05T20:58:04.133Z,87.60
2019-03-05T21:00:31.909Z,87.70
2019-03-05T21:03:01.112Z,87.30
2019-03-05T21:05:30.761Z,87.60
2019-03-05T21:07:58.526Z,88.10
2019-03-05T21:10:26.244Z,88.40
2019-03-05T21:12:54.006Z,88.70
2019-03-05T21:15:22.118Z,88.80
2019-03-05T21:17:49.913Z,88.40
2019-03-05T21:20:17.690Z,88.20
2019-03-05T21:22:45.408Z,88.50
2019-03-05T21:25:13.269Z,88.00
2019-03-05T21:27:41.021Z,87.60
2019-03-05T21:30:11.897Z,87.50
2019-03-05T21:32:39.639Z,87.30
2019-03-05T21:35:08.186Z,87.30
2019-03-05T21:37:35.967Z,87.20
2019-03-05T21:40:04.056Z,87.30
2019-03-05T21:42:31.785Z,87.20
2019-03-05T21:44:59.514Z,87.40
2019-03-05T21:47:27.277Z,87.60
2019-03-05T21:49:55.085Z,87.90
2019-03-05T21:52:22.873Z,88.20
2019-03-05T21:54:50.545Z,88.50
2019-03-05T21:57:18.269Z,88.70
2019-03-05T21:59:46.010Z,89.00
2019-03-05T22:02:13.721Z,89.10
2019-03-05T22:04:41.439Z,89.10
2019-03-05T22:07:09.521Z,89.30
2019-03-05T22:09:37.740Z,89.60
2019-03-05T22:12:05.460Z,89.80
2019-03-05T22:14:33.196Z,90.00
2019-03-05T22:17:01.190Z,90.00
2019-03-05T22:19:28.973Z,89.90
2019-03-05T22:21:56.717Z,90.00
2019-03-05T22:24:24.447Z,90.20
2019-03-05T22:26:52.255Z,90.10
2019-03-05T22:29:21.439Z,90.10
2019-03-05T22:31:51.023Z,90.30
2019-03-05T22:34:21.061Z,90.50
2019-03-05T22:36:50.937Z,90.60
2019-03-05T22:39:18.753Z,90.60
2019-03-05T22:41:46.458Z,90.50
2019-03-05T22:44:14.199Z,90.50
2019-03-05T22:46:42.105Z,90.70
2019-03-05T22:49:09.870Z,90.80
2019-03-05T22:51:37.591Z,90.90
2019-03-05T22:54:05.305Z,90.80
2019-03-05T22:56:33.033Z,90.70
2019-03-05T22:59:00.776Z,90.50
2019-03-05T23:01:40.630Z,90.40
2019-03-05T23:04:09.993Z,90.50
2019-03-05T23:06:37.717Z,90.60
2019-03-05T23:09:13.312Z,90.70
2019-03-05T23:11:41.053Z,90.80
2019-03-05T23:14:08.786Z,90.50
2019-03-05T23:16:36.517Z,90.70
2019-03-05T23:19:04.379Z,90.80
2019-03-05T23:21:32.101Z,90.80
2019-03-05T23:23:59.853Z,90.90
2019-03-05T23:26:27.664Z,90.80
2019-03-05T23:28:55.394Z,90.80
2019-03-05T23:31:23.144Z,90.80
2019-03-05T23:33:50.877Z,90.90
2019-03-05T23:36:18.905Z,90.90
2019-03-05T23:38:46.681Z,90.90
2019-03-05T23:41:14.401Z,91.00
2019-03-05T23:43:42.129Z,91.10
2019-03-05T23:46:09.868Z,91.20
2019-03-05T23:48:37.587Z,91.40
2019-03-05T23:51:05.364Z,91.70
2019-03-05T23:53:33.093Z,91.80
2019-03-05T23:56:00.877Z,91.90
2019-03-05T23:58:28.605Z,92.10
